Time;durP1;ratioP1;P1;durP2;ratioP2;P2;SDS_P1;SDS_P2;PMS_P1;PMS_P2;Temp;Humidity;BMP_temperature;BMP_pressure;BME280_temperature;BME280_humidity;BME280_pressure;Samples;Min_cycle;Max_cycle;Signal;HPM_P1;HPM_P2
2021/04/23 00:00:44;;;;;;;3.92;2.92;;;6.50;48.50;;;;;;5097175;28;20550;-80
2021/04/23 00:03:22;;;;;;;4.88;3.00;;;6.30;48.30;;;;;;5095236;28;20583;-79
2021/04/23 00:05:50;;;;;;;2.85;2.40;;;6.40;49.80;;;;;;5094250;28;20202;-80
2021/04/23 00:08:18;;;;;;;6.28;3.28;;;6.40;50.00;;;;;;5097198;28;20198;-80
2021/04/23 00:10:45;;;;;;;4.03;3.08;;;6.40;49.10;;;;;;5104145;28;20257;-80
2021/04/23 00:13:14;;;;;;;5.05;2.65;;;6.40;48.80;;;;;;5114949;28;20263;-80
2021/04/23 00:15:41;;;;;;;5.75;3.60;;;6.40;49.10;;;;;;5094485;28;20190;-80
2021/04/23 00:18:09;;;;;;;6.82;3.50;;;6.20;49.50;;;;;;5106947;28;20287;-80
2021/04/23 00:20:35;;;;;;;4.88;3.25;;;6.20;49.00;;;;;;5090781;28;20199;-80
2021/04/23 00:23:05;;;;;;;3.95;3.35;;;6.00;49.40;;;;;;5101629;28;20564;-80
2021/04/23 00:25:32;;;;;;;3.35;2.83;;;6.00;49.50;;;;;;5102166;28;20663;-80
2021/04/23 00:28:01;;;;;;;3.67;2.70;;;5.90;49.60;;;;;;5093825;28;20205;-80
2021/04/23 00:30:31;;;;;;;5.70;3.08;;;6.00;49.80;;;;;;5098492;28;20218;-80
2021/04/23 00:32:58;;;;;;;3.85;3.17;;;6.00;50.00;;;;;;5102435;28;20301;-80
2021/04/23 00:35:31;;;;;;;6.10;3.25;;;5.80;49.90;;;;;;5106828;28;20225;-80
2021/04/23 00:37:59;;;;;;;6.60;2.90;;;5.90;50.20;;;;;;5088758;28;20233;-80
2021/04/23 00:40:28;;;;;;;8.20;3.90;;;5.90;50.40;;;;;;5098214;28;20199;-80
2021/04/23 00:42:54;;;;;;;4.57;3.53;;;5.90;50.30;;;;;;5102611;28;20202;-80
2021/04/23 00:45:23;;;;;;;3.60;2.67;;;5.90;50.00;;;;;;5098418;28;20238;-80
2021/04/23 00:47:52;;;;;;;5.00;3.72;;;5.90;50.40;;;;;;5112487;28;20240;-80
2021/04/23 00:50:29;;;;;;;7.82;3.45;;;5.80;50.60;;;;;;5095711;28;20254;-80
2021/04/23 00:52:55;;;;;;;3.10;2.88;;;5.90;50.60;;;;;;5112441;28;20225;-80
2021/04/23 00:55:23;;;;;;;4.35;2.88;;;5.90;50.60;;;;;;5109355;28;20190;-80
2021/04/23 00:57:49;;;;;;;5.00;3.25;;;5.90;50.50;;;;;;5101725;28;20651;-80
2021/04/23 01:00:17;;;;;;;2.75;2.40;;;5.90;50.40;;;;;;5096525;28;20195;-80
2021/04/23 01:02:44;;;;;;;5.80;2.95;;;5.80;50.60;;;;;;5108576;28;20258;-80
2021/04/23 01:05:14;;;;;;;10.60;3.92;;;5.50;50.70;;;;;;5110212;28;20205;-80
2021/04/23 01:07:44;;;;;;;6.78;2.90;;;5.40;51.30;;;;;;5112844;28;20666;-80
2021/04/23 01:10:13;;;;;;;3.42;3.13;;;5.30;51.80;;;;;;5104783;28;20226;-80
2021/04/23 01:12:41;;;;;;;3.30;3.00;;;5.50;52.10;;;;;;5101101;28;20210;-80
2021/04/23 01:15:11;;;;;;;10.55;2.88;;;5.50;52.50;;;;;;5109096;28;20281;-80
2021/04/23 01:17:39;;;;;;;6.03;2.92;;;5.50;53.00;;;;;;5104885;28;20210;-80
2021/04/23 01:20:09;;;;;;;7.55;3.28;;;5.50;53.50;;;;;;5105104;28;20671;-80
2021/04/23 01:22:37;;;;;;;3.78;2.85;;;5.40;53.60;;;;;;5099832;28;20218;-80
2021/04/23 01:25:06;;;;;;;3.45;2.55;;;5.10;53.70;;;;;;5099527;28;20675;-80
2021/04/23 01:27:33;;;;;;;3.60;2.97;;;5.00;53.80;;;;;;5102178;28;20321;-80
2021/04/23 01:30:01;;;;;;;6.05;3.13;;;4.90;53.30;;;;;;5096121;28;20724;-80
2021/04/23 01:32:30;;;;;;;3.40;2.20;;;4.80;53.10;;;;;;5104134;28;20282;-80
2021/04/23 01:35:10;;;;;;;9.77;2.88;;;4.90;53.30;;;;;;5104988;28;20205;-80
2021/04/23 01:37:39;;;;;;;8.90;3.05;;;5.10;53.70;;;;;;5100982;28;20189;-80
2021/04/23 01:40:08;;;;;;;5.88;2.83;;;5.00;52.70;;;;;;5110573;28;20204;-80
2021/04/23 01:42:37;;;;;;;6.18;2.65;;;4.90;52.90;;;;;;5097886;28;20202;-80
2021/04/23 01:45:06;;;;;;;3.72;2.70;;;4.90;53.00;;;;;;5100489;28;20198;-80
2021/04/23 01:47:35;;;;;;;4.18;3.22;;;4.90;53.80;;;;;;5092089;28;20210;-81
2021/04/23 01:50:07;;;;;;;5.38;2.55;;;4.90;53.70;;;;;;5090609;28;20591;-80
2021/04/23 01:52:38;;;;;;;4.40;2.83;;;4.90;53.50;;;;;;5093325;28;20556;-80
2021/04/23 01:55:07;;;;;;;8.23;3.65;;;4.90;53.00;;;;;;5073921;28;20669;-80
2021/04/23 01:57:36;;;;;;;3.47;3.10;;;4.90;53.00;;;;;;5102129;28;20744;-80
2021/04/23 02:00:21;;;;;;;11.95;3.28;;;4.80;53.10;;;;;;5090466;28;20652;-79
2021/04/23 02:02:49;;;;;;;6.88;3.13;;;4.80;53.60;;;;;;5074007;28;20383;-80
2021/04/23 02:05:17;;;;;;;5.53;3.65;;;4.70;53.60;;;;;;5096495;28;20546;-80
2021/04/23 02:07:45;;;;;;;5.35;3.38;;;4.90;53.90;;;;;;5107590;28;20346;-80
2021/04/23 02:10:15;;;;;;;4.85;3.55;;;4.80;54.20;;;;;;5102147;28;20225;-81
2021/04/23 02:12:44;;;;;;;11.27;4.38;;;5.00;54.40;;;;;;5091963;28;20217;-81
2021/04/23 02:15:13;;;;;;;8.02;2.83;;;5.20;55.30;;;;;;5109223;28;20667;-80
2021/04/23 02:17:40;;;;;;;4.85;3.10;;;4.90;55.10;;;;;;5112295;28;20206;-80
2021/04/23 02:20:10;;;;;;;5.85;3.33;;;4.70;55.50;;;;;;5102017;28;20194;-80
2021/04/23 02:22:36;;;;;;;6.47;3.15;;;4.60;55.80;;;;;;5106593;28;20209;-80
2021/04/23 02:25:05;;;;;;;5.22;3.90;;;4.50;56.30;;;;;;5097166;28;20195;-81
2021/04/23 02:27:31;;;;;;;4.80;3.60;;;4.50;55.20;;;;;;5109697;28;20213;-81
2021/04/23 02:29:58;;;;;;;5.63;2.75;;;4.50;54.90;;;;;;5095918;28;20222;-80
2021/04/23 02:32:24;;;;;;;4.70;3.47;;;4.40;54.90;;;;;;5106623;28;20201;-81
2021/04/23 02:34:50;;;;;;;3.95;3.15;;;4.40;55.20;;;;;;5100452;28;20248;-80
2021/04/23 02:37:17;;;;;;;9.70;4.60;;;4.40;55.20;;;;;;5095032;28;20198;-80
2021/04/23 02:39:43;;;;;;;9.02;3.83;;;4.50;55.20;;;;;;5101747;28;20186;-80
2021/04/23 02:42:11;;;;;;;4.88;3.30;;;4.40;55.30;;;;;;5111163;28;20206;-80
2021/04/23 02:44:37;;;;;;;6.82;3.40;;;4.50;55.40;;;;;;5101951;28;20198;-80
2021/04/23 02:47:04;;;;;;;4.90;4.25;;;4.60;56.10;;;;;;5090962;28;20211;-80
2021/04/23 02:49:31;;;;;;;7.10;3.47;;;4.80;55.50;;;;;;5100038;28;20218;-80
2021/04/23 02:51:57;;;;;;;6.82;4.00;;;4.70;54.80;;;;;;5096699;28;20221;-80
2021/04/23 02:54:26;;;;;;;5.05;4.10;;;4.80;55.40;;;;;;5107504;28;20232;-80
2021/04/23 02:56:52;;;;;;;5.47;3.30;;;4.80;55.10;;;;;;5092241;28;20194;-80
2021/04/23 02:59:20;;;;;;;3.97;3.00;;;4.80;55.00;;;;;;5101198;28;20190;-80
2021/04/23 03:01:48;;;;;;;5.32;3.67;;;4.80;55.30;;;;;;5091056;28;20639;-80
2021/04/23 03:04:15;;;;;;;4.90;3.80;;;4.80;55.60;;;;;;5108011;28;20208;-80
2021/04/23 03:06:42;;;;;;;4.10;3.40;;;4.80;55.40;;;;;;5109569;28;20190;-80
2021/04/23 03:09:09;;;;;;;4.43;4.03;;;4.80;56.20;;;;;;5109539;28;20198;-80
2021/04/23 03:11:39;;;;;;;6.38;4.03;;;4.70;56.20;;;;;;5110080;28;20197;-80
2021/04/23 03:14:07;;;;;;;5.55;3.42;;;4.60;56.70;;;;;;5108329;28;20201;-80
2021/04/23 03:16:38;;;;;;;7.82;3.30;;;4.50;56.70;;;;;;5107744;28;20285;-80
2021/04/23 03:19:10;;;;;;;5.43;3.25;;;4.60;56.50;;;;;;5101632;28;20234;-80
2021/04/23 03:21:36;;;;;;;5.80;4.00;;;4.50;55.70;;;;;;5090869;28;20234;-80
2021/04/23 03:24:04;;;;;;;6.47;4.20;;;4.50;55.90;;;;;;5105237;28;20203;-80
2021/04/23 03:26:30;;;;;;;8.23;3.50;;;4.40;56.30;;;;;;5092003;28;20849;-80
2021/04/23 03:28:56;;;;;;;8.10;4.07;;;4.40;56.20;;;;;;5093989;28;20620;-80
2021/04/23 03:31:23;;;;;;;6.85;3.33;;;4.50;56.00;;;;;;5108637;28;20229;-80
2021/04/23 03:33:50;;;;;;;5.82;3.58;;;4.30;56.20;;;;;;5096839;28;20225;-81
2021/04/23 03:36:16;;;;;;;7.50;3.83;;;4.30;56.60;;;;;;5103346;28;20221;-80
2021/04/23 03:38:46;;;;;;;4.60;3.47;;;4.10;57.00;;;;;;5098177;28;20213;-80
2021/04/23 03:41:16;;;;;;;3.95;3.05;;;4.00;57.50;;;;;;5090679;28;20679;-80
2021/04/23 03:43:43;;;;;;;3.95;3.03;;;3.90;57.40;;;;;;5093088;28;20622;-80
2021/04/23 03:46:10;;;;;;;7.18;3.95;;;4.00;56.70;;;;;;5106254;28;20194;-80
2021/04/23 03:48:37;;;;;;;7.80;3.95;;;4.10;56.60;;;;;;5087317;28;20209;-80
2021/04/23 03:51:06;;;;;;;7.10;3.90;;;4.30;56.30;;;;;;5103086;28;20210;-80
2021/04/23 03:53:34;;;;;;;5.22;3.45;;;4.30;55.90;;;;;;5090721;28;20679;-80
2021/04/23 03:56:00;;;;;;;4.60;3.97;;;4.30;55.70;;;;;;5094115;28;20202;-80
2021/04/23 03:58:28;;;;;;;6.15;3.72;;;4.20;55.60;;;;;;5095849;28;20194;-80
2021/04/23 04:00:58;;;;;;;5.50;4.43;;;4.20;55.70;;;;;;5093605;28;20202;-80
2021/04/23 04:03:27;;;;;;;7.38;3.88;;;4.20;56.00;;;;;;5096569;28;20209;-80
2021/04/23 04:05:54;;;;;;;7.07;4.05;;;3.90;56.90;;;;;;5091725;28;20238;-80
2021/04/23 04:08:21;;;;;;;4.30;3.88;;;3.80;57.50;;;;;;5089994;28;20199;-79
2021/04/23 04:10:48;;;;;;;8.48;5.57;;;3.90;57.80;;;;;;5104309;28;20261;-80
2021/04/23 04:13:16;;;;;;;7.78;5.07;;;3.80;57.60;;;;;;5100667;28;20221;-79
2021/04/23 04:15:43;;;;;;;5.97;4.50;;;3.80;57.50;;;;;;5105219;28;20229;-80
2021/04/23 04:18:11;;;;;;;7.13;4.43;;;3.70;57.30;;;;;;5100541;28;20290;-80
2021/04/23 04:20:41;;;;;;;4.13;3.72;;;3.80;57.20;;;;;;5098197;28;20283;-80
2021/04/23 04:23:10;;;;;;;9.00;4.03;;;3.70;56.70;;;;;;5090305;28;20198;-80
2021/04/23 04:25:39;;;;;;;8.57;3.90;;;3.90;57.00;;;;;;5106875;28;20222;-80
2021/04/23 04:28:07;;;;;;;5.70;3.38;;;4.00;57.50;;;;;;5093815;28;20205;-79
2021/04/23 04:30:34;;;;;;;4.10;3.70;;;4.00;57.80;;;;;;5098240;28;20254;-80
2021/04/23 04:33:00;;;;;;;8.27;3.88;;;4.00;57.80;;;;;;5069336;28;20265;-80
2021/04/23 04:35:28;;;;;;;6.25;4.28;;;4.00;58.20;;;;;;5088685;28;20238;-80
2021/04/23 04:37:55;;;;;;;4.80;3.58;;;4.00;58.60;;;;;;5104627;28;20583;-80
2021/04/23 04:40:22;;;;;;;8.00;4.05;;;3.90;58.90;;;;;;5099307;28;20200;-80
2021/04/23 04:42:50;;;;;;;5.90;4.05;;;3.60;59.00;;;;;;5107717;28;20234;-80
2021/04/23 04:45:19;;;;;;;7.18;4.72;;;3.60;59.70;;;;;;5094483;28;20653;-80
2021/04/23 04:47:46;;;;;;;5.80;4.20;;;3.60;60.20;;;;;;5107704;28;20226;-80
2021/04/23 04:50:15;;;;;;;10.13;4.40;;;3.80;59.90;;;;;;5095298;28;20317;-80
2021/04/23 04:52:42;;;;;;;4.97;4.35;;;3.70;59.70;;;;;;5093243;28;20198;-80
2021/04/23 04:55:16;;;;;;;8.65;3.83;;;3.60;59.60;;;;;;5109914;28;20198;-80
2021/04/23 04:57:42;;;;;;;8.10;4.25;;;3.60;60.10;;;;;;5103309;28;20203;-80
2021/04/23 05:00:11;;;;;;;5.35;3.40;;;3.60;60.30;;;;;;5106945;28;20198;-80
2021/04/23 05:02:38;;;;;;;4.30;3.88;;;3.70;61.10;;;;;;5088960;28;20571;-80
2021/04/23 05:05:06;;;;;;;10.80;4.65;;;4.10;60.70;;;;;;5104467;28;20293;-81
2021/04/23 05:07:33;;;;;;;4.70;3.58;;;4.40;59.90;;;;;;5091089;28;20605;-80
2021/04/23 05:09:59;;;;;;;6.80;5.40;;;4.70;59.30;;;;;;5092082;28;20222;-80
2021/04/23 05:12:25;;;;;;;5.63;3.88;;;4.60;58.70;;;;;;5094659;28;20209;-80
2021/04/23 05:14:52;;;;;;;5.43;4.22;;;4.50;59.00;;;;;;5101876;28;20720;-80
2021/04/23 05:17:19;;;;;;;10.32;4.32;;;4.50;59.60;;;;;;5113631;28;20221;-80
2021/04/23 05:19:45;;;;;;;32.50;5.75;;;4.70;59.00;;;;;;5092650;28;20222;-80
2021/04/23 05:22:12;;;;;;;14.77;5.03;;;4.90;58.60;;;;;;5105714;28;20573;-81
2021/04/23 05:24:39;;;;;;;10.25;4.70;;;4.90;58.30;;;;;;5100474;28;20605;-80
2021/04/23 05:27:05;;;;;;;8.20;5.32;;;5.10;58.10;;;;;;5108184;28;20194;-80
2021/04/23 05:29:32;;;;;;;10.10;6.15;;;5.30;58.10;;;;;;5099489;28;21271;-80
2021/04/23 05:32:01;;;;;;;7.72;5.38;;;5.50;58.10;;;;;;5101215;28;20199;-80
2021/04/23 05:34:28;;;;;;;7.95;4.82;;;5.40;58.40;;;;;;5108479;28;20211;-80
2021/04/23 05:36:55;;;;;;;11.23;5.20;;;5.50;58.10;;;;;;5112082;28;20240;-80
2021/04/23 05:39:21;;;;;;;10.25;4.35;;;5.70;57.70;;;;;;5105006;28;20614;-80
2021/04/23 05:41:48;;;;;;;10.70;5.43;;;5.80;56.90;;;;;;5092025;28;20659;-80
2021/04/23 05:44:14;;;;;;;6.00;5.07;;;5.90;56.50;;;;;;5104091;28;20664;-81
2021/04/23 05:46:40;;;;;;;7.57;5.10;;;6.10;56.50;;;;;;5095015;28;20202;-80
2021/04/23 05:49:07;;;;;;;8.13;5.10;;;6.20;55.80;;;;;;5103709;28;20195;-80
2021/04/23 05:51:35;;;;;;;5.75;5.13;;;6.30;55.60;;;;;;5103540;28;20698;-80
2021/04/23 05:54:02;;;;;;;6.32;5.20;;;6.60;55.40;;;;;;5110955;28;20221;-80
2021/04/23 05:56:28;;;;;;;5.93;5.15;;;6.70;54.90;;;;;;5101894;28;20194;-80
2021/04/23 05:58:55;;;;;;;6.43;4.65;;;6.80;54.20;;;;;;5091452;28;20195;-80
2021/04/23 06:01:22;;;;;;;5.32;4.82;;;6.90;53.40;;;;;;5091995;28;20210;-80
2021/04/23 06:03:49;;;;;;;16.95;5.40;;;7.00;52.50;;;;;;5103900;28;20237;-80
2021/04/23 06:06:16;;;;;;;8.90;4.78;;;7.10;52.10;;;;;;5100915;28;20281;-81
2021/04/23 06:08:43;;;;;;;14.00;5.07;;;7.30;52.00;;;;;;5109573;28;20201;-80
2021/04/23 06:11:14;;;;;;;8.50;5.03;;;7.30;51.80;;;;;;5091371;28;20219;-80
2021/04/23 06:13:41;;;;;;;12.10;5.40;;;7.40;52.10;;;;;;5099905;28;20202;-80
2021/04/23 06:16:08;;;;;;;12.02;4.70;;;7.60;51.60;;;;;;5096825;28;20679;-80
2021/04/23 06:18:34;;;;;;;8.57;5.57;;;7.60;51.40;;;;;;5093024;28;20644;-81
2021/04/23 06:21:01;;;;;;;6.63;4.30;;;7.70;51.50;;;;;;5092915;28;20202;-80
2021/04/23 06:23:27;;;;;;;8.80;5.90;;;7.70;51.40;;;;;;5097670;28;20737;-80
2021/04/23 06:25:55;;;;;;;11.73;6.45;;;7.90;51.80;;;;;;5101773;28;21343;-80
2021/04/23 06:28:21;;;;;;;9.52;6.22;;;8.00;51.50;;;;;;5105343;28;20571;-81
2021/04/23 06:30:47;;;;;;;9.40;5.28;;;8.00;51.10;;;;;;5092807;28;20715;-80
2021/04/23 06:33:16;;;;;;;7.13;5.03;;;7.90;51.20;;;;;;5094636;28;20652;-80
2021/04/23 06:35:43;;;;;;;9.18;5.20;;;8.00;51.40;;;;;;5096458;28;20202;-80
2021/04/23 06:38:09;;;;;;;6.30;4.40;;;8.10;50.90;;;;;;5095489;28;20459;-81
2021/04/23 06:40:36;;;;;;;9.32;5.35;;;8.10;51.00;;;;;;5104910;28;20205;-81
2021/04/23 06:43:05;;;;;;;12.45;4.70;;;8.10;51.20;;;;;;5111845;28;20204;-80
2021/04/23 06:45:32;;;;;;;9.10;5.55;;;8.10;51.30;;;;;;5106515;28;20250;-80
2021/04/23 06:47:58;;;;;;;6.05;4.82;;;7.80;51.90;;;;;;5091247;28;20702;-80
2021/04/23 06:50:26;;;;;;;11.68;6.05;;;7.90;52.00;;;;;;5091044;28;20582;-80
2021/04/23 06:52:54;;;;;;;7.03;4.30;;;7.80;51.90;;;;;;5090717;28;20217;-81
2021/04/23 06:55:22;;;;;;;9.25;4.45;;;7.80;52.40;;;;;;5089157;28;20221;-81
2021/04/23 06:57:49;;;;;;;5.32;4.07;;;7.50;52.00;;;;;;5096460;28;20207;-82
2021/04/23 07:00:19;;;;;;;7.72;4.85;;;7.80;52.00;;;;;;5091862;28;20198;-82
2021/04/23 07:02:46;;;;;;;5.75;4.50;;;8.00;52.10;;;;;;5088910;28;20203;-82
2021/04/23 07:05:14;;;;;;;8.38;4.57;;;8.50;52.00;;;;;;5093611;28;20198;-82
2021/04/23 07:07:40;;;;;;;8.43;4.90;;;8.80;51.50;;;;;;5090009;28;20194;-82
2021/04/23 07:10:10;;;;;;;6.13;5.38;;;9.10;51.40;;;;;;5089581;28;20293;-80
2021/04/23 07:12:36;;;;;;;16.00;5.80;;;9.20;50.70;;;;;;5090681;28;20202;-80
2021/04/23 07:15:04;;;;;;;7.88;4.45;;;9.40;50.60;;;;;;5090491;28;20226;-80
2021/04/23 07:17:31;;;;;;;10.02;5.03;;;9.30;49.90;;;;;;5089696;28;20980;-81
2021/04/23 07:19:58;;;;;;;7.90;4.68;;;8.90;49.60;;;;;;5090121;28;20254;-81
2021/04/23 07:22:24;;;;;;;5.95;4.70;;;9.10;50.30;;;;;;5090225;28;20255;-81
2021/04/23 07:24:51;;;;;;;6.75;4.47;;;9.20;50.60;;;;;;5090467;28;20195;-81
2021/04/23 07:27:17;;;;;;;9.02;5.60;;;9.40;50.70;;;;;;5090179;28;20195;-81
2021/04/23 07:29:44;;;;;;;11.10;5.35;;;9.70;50.40;;;;;;5089690;28;20202;-81
2021/04/23 07:32:10;;;;;;;7.28;4.90;;;9.90;50.30;;;;;;5088941;28;20229;-81
2021/04/23 07:34:38;;;;;;;7.00;5.72;;;10.10;49.40;;;;;;5085388;28;20202;-81
2021/04/23 07:37:05;;;;;;;7.45;4.95;;;9.90;49.20;;;;;;5089508;28;20199;-82
2021/04/23 07:39:31;;;;;;;6.95;5.35;;;10.10;48.50;;;;;;5090066;28;20191;-81
2021/04/23 07:41:58;;;;;;;9.52;5.75;;;10.00;47.80;;;;;;5089465;28;20216;-82
2021/04/23 07:44:26;;;;;;;8.95;4.75;;;9.90;49.10;;;;;;5088614;28;20218;-82
2021/04/23 07:46:54;;;;;;;7.00;5.68;;;9.90;49.30;;;;;;5089500;28;20282;-82
2021/04/23 07:49:20;;;;;;;15.10;7.07;;;9.90;49.20;;;;;;5088853;28;20190;-81
2021/04/23 07:51:48;;;;;;;7.60;5.70;;;9.70;48.80;;;;;;5089832;28;20219;-81
2021/04/23 07:54:15;;;;;;;6.45;5.57;;;9.70;49.70;;;;;;5089685;28;20202;-81
2021/04/23 07:56:41;;;;;;;9.80;5.75;;;10.00;48.90;;;;;;5091023;28;20186;-81
2021/04/23 07:59:08;;;;;;;18.02;6.13;;;9.90;49.30;;;;;;5103429;28;20212;-82
2021/04/23 08:01:34;;;;;;;7.90;5.82;;;10.10;48.30;;;;;;5111020;28;20208;-81
2021/04/23 08:04:01;;;;;;;8.30;6.95;;;10.10;47.40;;;;;;5107191;28;20198;-81
2021/04/23 08:06:30;;;;;;;6.82;6.07;;;10.20;47.60;;;;;;5090910;28;20206;-81
2021/04/23 08:08:57;;;;;;;8.60;6.38;;;10.10;47.30;;;;;;5092062;28;20202;-81
2021/04/23 08:11:24;;;;;;;7.32;5.47;;;10.50;48.40;;;;;;5097653;28;21042;-82
2021/04/23 08:13:51;;;;;;;7.00;5.60;;;10.90;48.00;;;;;;5089070;28;20214;-82
2021/04/23 08:16:17;;;;;;;10.45;5.72;;;11.10;47.00;;;;;;5090353;28;20596;-82
2021/04/23 08:18:45;;;;;;;6.65;5.15;;;11.10;46.30;;;;;;5089686;28;20215;-82
2021/04/23 08:21:11;;;;;;;13.77;6.30;;;11.40;46.90;;;;;;5110082;28;20281;-82
2021/04/23 08:23:38;;;;;;;10.63;6.25;;;11.60;46.10;;;;;;5113934;28;20210;-82
2021/04/23 08:26:06;;;;;;;15.13;6.55;;;11.30;45.50;;;;;;5095519;28;20198;-83
2021/04/23 08:28:33;;;;;;;9.13;4.55;;;11.30;46.40;;;;;;5106369;28;20562;-83
2021/04/23 08:31:00;;;;;;;10.85;6.15;;;11.80;46.70;;;;;;5106371;28;20706;-83
2021/04/23 08:33:27;;;;;;;12.53;5.27;;;12.10;46.30;;;;;;5094435;28;20539;-84
2021/04/23 08:35:54;;;;;;;9.23;5.60;;;12.40;44.60;;;;;;5094111;28;20619;-83
2021/04/23 08:38:23;;;;;;;13.87;6.03;;;12.50;44.80;;;;;;5097156;28;20612;-83
2021/04/23 08:40:50;;;;;;;6.37;5.13;;;12.70;44.40;;;;;;5112127;28;20620;-83
2021/04/23 08:43:17;;;;;;;7.87;4.20;;;12.90;43.40;;;;;;5096497;28;20656;-82
2021/04/23 08:45:44;;;;;;;7.90;4.70;;;13.10;42.80;;;;;;5094185;28;20632;-83
2021/04/23 08:48:11;;;;;;;9.27;5.23;;;13.30;43.00;;;;;;5109295;28;20680;-82
2021/04/23 08:50:40;;;;;;;6.53;4.70;;;13.20;42.70;;;;;;5114057;28;20651;-83
2021/04/23 08:53:08;;;;;;;5.87;4.50;;;13.40;42.10;;;;;;5097869;28;20627;-83
2021/04/23 08:55:34;;;;;;;6.90;5.00;;;13.50;42.50;;;;;;5094121;28;20666;-83
2021/04/23 08:58:01;;;;;;;9.33;5.53;;;13.50;42.50;;;;;;5095322;28;20612;-83
2021/04/23 09:00:30;;;;;;;12.33;6.83;;;13.70;42.90;;;;;;5093954;28;20658;-84
2021/04/23 09:02:56;;;;;;;7.00;5.60;;;13.80;42.60;;;;;;5105397;28;20632;-83
2021/04/23 09:05:23;;;;;;;8.63;5.90;;;13.90;41.90;;;;;;5112289;28;20619;-83
2021/04/23 09:08:00;;;;;;;11.03;5.73;;;14.00;42.20;;;;;;5113650;28;20615;-83
2021/04/23 09:10:28;;;;;;;12.23;5.57;;;14.00;41.60;;;;;;5111260;28;21064;-82
2021/04/23 09:13:14;;;;;;;5.70;4.80;;;13.80;42.10;;;;;;5093331;28;20612;-83
2021/04/23 09:15:43;;;;;;;10.27;5.83;;;13.90;42.60;;;;;;5103372;28;20959;-83
2021/04/23 09:18:12;;;;;;;10.73;6.20;;;14.10;41.90;;;;;;5099513;28;20643;-83
2021/04/23 09:20:41;;;;;;;6.83;5.43;;;14.00;42.40;;;;;;5110841;28;20630;-83
2021/04/23 09:23:11;;;;;;;10.60;5.70;;;13.80;41.30;;;;;;5107611;28;20616;-82
2021/04/23 09:25:40;;;;;;;7.53;5.40;;;13.20;40.90;;;;;;5109274;28;20628;-83
2021/04/23 09:28:06;;;;;;;9.73;6.80;;;13.20;42.30;;;;;;5102054;28;20693;-83
2021/04/23 09:30:36;;;;;;;8.60;5.77;;;13.30;41.70;;;;;;5091813;28;20690;-83
2021/04/23 09:33:04;;;;;;;9.27;5.67;;;13.50;42.30;;;;;;5091805;28;21000;-83
2021/04/23 09:35:36;;;;;;;11.80;6.27;;;13.80;41.30;;;;;;5091788;28;20632;-85
2021/04/23 09:38:03;;;;;;;8.43;5.70;;;13.70;42.30;;;;;;5101143;28;20611;-83
2021/04/23 09:40:34;;;;;;;9.10;6.17;;;14.00;41.30;;;;;;5105218;28;20613;-83
2021/04/23 09:43:03;;;;;;;8.00;5.00;;;14.20;41.10;;;;;;5103431;28;20630;-83
2021/04/23 09:45:32;;;;;;;9.53;5.50;;;13.80;40.10;;;;;;5096549;28;20619;-83
2021/04/23 09:47:58;;;;;;;8.63;6.70;;;13.60;40.40;;;;;;5109109;28;20679;-82
2021/04/23 09:50:33;;;;;;;6.70;5.07;;;13.40;41.00;;;;;;5107427;28;20647;-83
2021/04/23 09:52:59;;;;;;;5.43;4.93;;;13.70;41.40;;;;;;5102133;28;20621;-84
2021/04/23 09:55:32;;;;;;;9.87;5.70;;;14.00;40.80;;;;;;5092992;28;20621;-83
2021/04/23 09:58:04;;;;;;;10.93;5.83;;;14.40;40.60;;;;;;5094694;28;20624;-83
2021/04/23 10:00:35;;;;;;;7.50;4.70;;;14.10;39.30;;;;;;5108953;28;20604;-83
2021/04/23 10:03:04;;;;;;;8.50;6.13;;;14.30;41.50;;;;;;5097568;28;20760;-83
2021/04/23 10:05:34;;;;;;;7.87;5.20;;;14.70;40.30;;;;;;5103830;28;20621;-83
2021/04/23 10:08:02;;;;;;;7.03;5.20;;;15.10;39.10;;;;;;5105365;28;20612;-82
2021/04/23 10:10:28;;;;;;;6.67;4.77;;;15.30;39.30;;;;;;5094181;28;20664;-83
2021/04/23 10:12:57;;;;;;;6.43;5.50;;;15.10;37.20;;;;;;5092325;28;20628;-82
2021/04/23 10:15:25;;;;;;;7.87;5.87;;;15.10;39.40;;;;;;5091293;28;20732;-83
2021/04/23 10:17:54;;;;;;;7.83;5.73;;;15.40;39.00;;;;;;5092688;28;20612;-83
2021/04/23 10:20:23;;;;;;;8.10;6.00;;;15.50;38.50;;;;;;5095464;28;20970;-83
2021/04/23 10:22:54;;;;;;;7.97;5.80;;;15.70;38.30;;;;;;5107806;28;20629;-83
2021/04/23 10:25:20;;;;;;;10.40;4.90;;;15.90;37.90;;;;;;5094267;28;20624;-83
2021/04/23 10:27:48;;;;;;;10.13;4.97;;;15.80;37.10;;;;;;5092716;28;20626;-85
2021/04/23 10:30:17;;;;;;;8.10;5.10;;;15.60;36.30;;;;;;5091423;28;20651;-84
2021/04/23 10:32:47;;;;;;;6.37;4.80;;;15.90;36.60;;;;;;5109032;28;20768;-85
2021/04/23 10:35:15;;;;;;;6.07;4.73;;;16.10;35.80;;;;;;5092324;28;20631;-84
2021/04/23 10:37:42;;;;;;;6.17;4.40;;;16.20;35.30;;;;;;5089202;28;20635;-84
2021/04/23 10:40:12;;;;;;;12.87;5.30;;;16.40;35.00;;;;;;5093131;28;20616;-84
2021/04/23 10:42:47;;;;;;;5.90;5.27;;;15.60;34.00;;;;;;5100718;28;20611;-84
2021/04/23 10:45:23;;;;;;;10.90;5.50;;;15.20;35.00;;;;;;5104249;28;20621;-84
2021/04/23 10:47:51;;;;;;;3.77;3.47;;;15.30;35.80;;;;;;5111055;28;20658;-84
2021/04/23 10:50:19;;;;;;;5.97;3.87;;;15.50;35.90;;;;;;5109892;28;20836;-83
2021/04/23 10:53:03;;;;;;;6.40;3.60;;;15.70;35.10;;;;;;5110920;28;20710;-84
2021/04/23 10:55:43;;;;;;;7.30;3.23;;;16.10;34.10;;;;;;5112007;28;20718;-84
2021/04/23 10:58:11;;;;;;;5.40;2.73;;;16.40;33.50;;;;;;5099682;28;20646;-84
2021/04/23 11:00:40;;;;;;;7.90;4.37;;;16.60;32.30;;;;;;5091265;28;20593;-84
2021/04/23 11:03:35;;;;;;;6.17;4.10;;;16.40;32.80;;;;;;5091143;28;20674;-83
2021/04/23 11:06:04;;;;;;;7.97;4.70;;;16.60;34.10;;;;;;5032479;28;21215;-84
2021/04/23 11:08:33;;;;;;;5.10;3.80;;;15.90;33.60;;;;;;5090688;28;20620;-83
2021/04/23 11:11:17;;;;;;;4.37;3.67;;;16.40;34.20;;;;;;5091359;28;20640;-83
2021/04/23 11:13:50;;;;;;;6.00;3.90;;;16.80;31.40;;;;;;5089397;28;20608;-83
2021/04/23 11:16:35;;;;;;;4.73;1.80;;;16.50;30.00;;;;;;5089005;28;20607;-83
2021/04/23 11:19:34;;;;;;;4.90;3.37;;;16.70;27.30;;;;;;5089210;28;21006;-83
2021/04/23 11:22:13;;;;;;;6.43;3.67;;;17.10;28.40;;;;;;5089696;28;20616;-83
2021/04/23 11:24:59;;;;;;;5.40;4.00;;;17.30;30.10;;;;;;5089477;28;20630;-83
2021/04/23 11:27:27;;;;;;;7.23;4.93;;;17.50;30.90;;;;;;5090112;28;20608;-84
2021/04/23 11:30:08;;;;;;;5.97;4.37;;;18.50;32.40;;;;;;5090469;28;20616;-84
2021/04/23 11:32:37;;;;;;;6.70;5.67;;;18.60;33.60;;;;;;5091057;28;20651;-84
2021/04/23 11:35:27;;;;;;;4.73;4.17;;;19.60;32.20;;;;;;5104130;28;20642;-84
2021/04/23 11:37:58;;;;;;;4.50;3.73;;;20.70;31.80;;;;;;5069672;28;20616;-85
2021/04/23 11:40:26;;;;;;;5.93;3.80;;;20.90;30.00;;;;;;5082611;28;20617;-83
2021/04/23 11:42:55;;;;;;;5.17;4.17;;;21.10;29.60;;;;;;5085014;28;20691;-85
2021/04/23 11:45:23;;;;;;;5.73;4.30;;;21.40;28.20;;;;;;5089964;28;20626;-84
2021/04/23 11:47:52;;;;;;;4.10;2.77;;;20.40;28.40;;;;;;5089408;28;20999;-83
2021/04/23 11:50:21;;;;;;;4.70;3.70;;;21.60;29.20;;;;;;5089825;28;21030;-85
2021/04/23 11:52:49;;;;;;;7.43;4.50;;;22.60;26.90;;;;;;5089164;28;20612;-84
2021/04/23 11:55:19;;;;;;;4.30;3.90;;;22.90;26.20;;;;;;5089627;28;20588;-85
2021/04/23 11:57:52;;;;;;;4.27;3.47;;;25.40;26.70;;;;;;5090876;28;20620;-85
2021/04/23 12:00:23;;;;;;;4.50;3.87;;;29.00;24.10;;;;;;5091906;28;20677;-85
2021/04/23 12:02:52;;;;;;;4.63;3.50;;;31.50;22.90;;;;;;5092453;28;21169;-86
2021/04/23 12:05:31;;;;;;;4.33;3.93;;;34.20;22.40;;;;;;5090499;28;21028;-84
2021/04/23 12:08:00;;;;;;;5.77;3.27;;;34.10;20.70;;;;;;5090341;28;21273;-84
2021/04/23 12:10:28;;;;;;;4.33;3.93;;;32.90;18.40;;;;;;5090182;28;20605;-84
2021/04/23 12:12:55;;;;;;;5.07;4.30;;;31.10;21.10;;;;;;5090544;28;20624;-85
2021/04/23 12:15:25;;;;;;;6.20;4.03;;;34.60;20.00;;;;;;5089892;28;21282;-85
2021/04/23 12:17:52;;;;;;;4.20;3.80;;;36.80;19.60;;;;;;5090508;28;20619;-84
2021/04/23 12:20:21;;;;;;;7.80;4.77;;;34.80;18.60;;;;;;5090151;28;20743;-84
2021/04/23 12:22:47;;;;;;;4.90;4.40;;;35.70;19.90;;;;;;5090180;28;21204;-85
2021/04/23 12:25:28;;;;;;;5.50;4.20;;;37.10;19.30;;;;;;5090189;28;20596;-84
2021/04/23 12:27:55;;;;;;;4.77;3.87;;;38.40;18.90;;;;;;5090569;28;20650;-85
2021/04/23 12:30:30;;;;;;;7.93;3.53;;;38.70;19.00;;;;;;5090268;28;20600;-84
2021/04/23 12:32:57;;;;;;;4.70;3.60;;;37.20;19.00;;;;;;5090244;28;20744;-85
2021/04/23 12:35:36;;;;;;;5.00;4.50;;;36.50;19.20;;;;;;5090444;28;20620;-84
2021/04/23 12:38:03;;;;;;;4.17;2.97;;;38.70;18.80;;;;;;5090057;28;20662;-84
2021/04/23 12:40:35;;;;;;;3.50;3.30;;;35.50;17.40;;;;;;5089623;28;20739;-84
2021/04/23 12:43:16;;;;;;;4.80;4.50;;;34.70;18.60;;;;;;5090062;28;20961;-85
2021/04/23 12:45:47;;;;;;;6.83;3.77;;;36.40;19.30;;;;;;5107176;28;20655;-85
2021/04/23 12:48:14;;;;;;;4.67;4.23;;;36.40;18.20;;;;;;5092062;28;21291;-85
2021/04/23 12:50:42;;;;;;;4.37;3.97;;;35.10;17.50;;;;;;5089277;28;20600;-86
2021/04/23 12:53:09;;;;;;;4.10;3.63;;;33.30;19.60;;;;;;5090572;28;20728;-85
2021/04/23 12:55:37;;;;;;;3.43;3.13;;;35.40;19.40;;;;;;5091352;28;20601;-84
2021/04/23 12:58:04;;;;;;;4.10;3.70;;;36.90;18.90;;;;;;5089855;28;20620;-84